sensor_id;sensor_type;location;lat;lon;timestamp;P1;durP1;ratioP1;P2;durP2;ratioP2
77304;SDS011;66364;52.622;7.746;2023-05-10T00:01:28;9.27;;;8.33;;
77304;SDS011;66364;52.622;7.746;2023-05-10T00:03:29;7.20;;;6.50;;
77304;SDS011;66364;52.622;7.746;2023-05-10T00:05:31;7.30;;;5.72;;
77304;SDS011;66364;52.622;7.746;2023-05-10T00:07:32;6.30;;;5.80;;
77304;SDS011;66364;52.622;7.746;2023-05-10T00:09:33;6.58;;;6.00;;
77304;SDS011;66364;52.622;7.746;2023-05-10T00:11:34;5.17;;;4.77;;
77304;SDS011;66364;52.622;7.746;2023-05-10T00:13:35;5.57;;;5.17;;
77304;SDS011;66364;52.622;7.746;2023-05-10T00:15:36;5.33;;;4.93;;
77304;SDS011;66364;52.622;7.746;2023-05-10T00:17:37;5.27;;;4.83;;
77304;SDS011;66364;52.622;7.746;2023-05-10T00:19:37;6.03;;;5.53;;
77304;SDS011;66364;52.622;7.746;2023-05-10T00:21:38;6.40;;;5.80;;
77304;SDS011;66364;52.622;7.746;2023-05-10T00:23:39;6.73;;;6.03;;
77304;SDS011;66364;52.622;7.746;2023-05-10T00:25:40;6.30;;;5.70;;
77304;SDS011;66364;52.622;7.746;2023-05-10T00:27:42;5.65;;;5.15;;
77304;SDS011;66364;52.622;7.746;2023-05-10T00:29:43;5.77;;;5.23;;
77304;SDS011;66364;52.622;7.746;2023-05-10T00:31:44;6.67;;;6.07;;
77304;SDS011;66364;52.622;7.746;2023-05-10T00:33:44;6.13;;;5.10;;
77304;SDS011;66364;52.622;7.746;2023-05-10T00:35:45;6.07;;;5.40;;
77304;SDS011;66364;52.622;7.746;2023-05-10T00:37:47;4.50;;;4.20;;
77304;SDS011;66364;52.622;7.746;2023-05-10T00:39:55;5.12;;;4.65;;
77304;SDS011;66364;52.622;7.746;2023-05-10T00:41:56;4.58;;;4.22;;
77304;SDS011;66364;52.622;7.746;2023-05-10T00:43:57;4.97;;;4.57;;
77304;SDS011;66364;52.622;7.746;2023-05-10T00:45:58;4.83;;;4.27;;
77304;SDS011;66364;52.622;7.746;2023-05-10T00:48:02;5.22;;;4.72;;
77304;SDS011;66364;52.622;7.746;2023-05-10T00:50:03;4.92;;;4.50;;
77304;SDS011;66364;52.622;7.746;2023-05-10T00:52:06;4.42;;;4.05;;
77304;SDS011;66364;52.622;7.746;2023-05-10T00:54:09;5.05;;;4.65;;
77304;SDS011;66364;52.622;7.746;2023-05-10T00:56:15;5.25;;;4.85;;
77304;SDS011;66364;52.622;7.746;2023-05-10T00:58:17;5.20;;;4.80;;
77304;SDS011;66364;52.622;7.746;2023-05-10T01:00:18;5.70;;;5.20;;
77304;SDS011;66364;52.622;7.746;2023-05-10T01:02:19;6.05;;;5.55;;
77304;SDS011;66364;52.622;7.746;2023-05-10T01:04:20;6.27;;;5.77;;
77304;SDS011;66364;52.622;7.746;2023-05-10T01:06:21;5.20;;;4.70;;
77304;SDS011;66364;52.622;7.746;2023-05-10T01:08:22;6.15;;;5.65;;
77304;SDS011;66364;52.622;7.746;2023-05-10T01:10:23;6.65;;;6.15;;
77304;SDS011;66364;52.622;7.746;2023-05-10T01:12:24;7.62;;;6.92;;
77304;SDS011;66364;52.622;7.746;2023-05-10T01:14:26;8.55;;;7.75;;
77304;SDS011;66364;52.622;7.746;2023-05-10T01:16:27;8.68;;;7.85;;
77304;SDS011;66364;52.622;7.746;2023-05-10T01:18:36;8.78;;;7.97;;
77304;SDS011;66364;52.622;7.746;2023-05-10T01:20:40;8.75;;;7.95;;
77304;SDS011;66364;52.622;7.746;2023-05-10T01:32:45;9.78;;;8.78;;
77304;SDS011;66364;52.622;7.746;2023-05-10T01:35:07;9.10;;;8.20;;
77304;SDS011;66364;52.622;7.746;2023-05-10T01:37:20;9.98;;;8.95;;
77304;SDS011;66364;52.622;7.746;2023-05-10T01:39:24;9.35;;;8.40;;
77304;SDS011;66364;52.622;7.746;2023-05-10T01:41:40;10.60;;;9.30;;
77304;SDS011;66364;52.622;7.746;2023-05-10T01:43:45;10.13;;;9.13;;
77304;SDS011;66364;52.622;7.746;2023-05-10T01:46:01;10.72;;;9.63;;
77304;SDS011;66364;52.622;7.746;2023-05-10T01:48:14;11.63;;;10.50;;
77304;SDS011;66364;52.622;7.746;2023-05-10T01:50:22;10.08;;;9.10;;
77304;SDS011;66364;52.622;7.746;2023-05-10T01:52:25;10.98;;;9.98;;
77304;SDS011;66364;52.622;7.746;2023-05-10T01:54:28;11.05;;;9.90;;
77304;SDS011;66364;52.622;7.746;2023-05-10T01:56:35;12.28;;;10.98;;
77304;SDS011;66364;52.622;7.746;2023-05-10T01:58:39;11.57;;;10.38;;
77304;SDS011;66364;52.622;7.746;2023-05-10T02:00:44;11.88;;;10.70;;
77304;SDS011;66364;52.622;7.746;2023-05-10T02:02:47;11.60;;;10.40;;
77304;SDS011;66364;52.622;7.746;2023-05-10T02:04:49;9.48;;;8.48;;
77304;SDS011;66364;52.622;7.746;2023-05-10T02:09:16;6.97;;;6.37;;
77304;SDS011;66364;52.622;7.746;2023-05-10T02:11:18;5.80;;;5.20;;
77304;SDS011;66364;52.622;7.746;2023-05-10T02:13:23;6.58;;;5.33;;
77304;SDS011;66364;52.622;7.746;2023-05-10T02:15:26;4.97;;;4.47;;
77304;SDS011;66364;52.622;7.746;2023-05-10T02:17:34;6.55;;;5.65;;
77304;SDS011;66364;52.622;7.746;2023-05-10T02:19:39;5.75;;;4.40;;
77304;SDS011;66364;52.622;7.746;2023-05-10T02:21:41;6.67;;;4.87;;
77304;SDS011;66364;52.622;7.746;2023-05-10T02:23:44;4.95;;;4.55;;
77304;SDS011;66364;52.622;7.746;2023-05-10T02:25:47;4.97;;;4.58;;
77304;SDS011;66364;52.622;7.746;2023-05-10T02:27:50;4.70;;;4.30;;
77304;SDS011;66364;52.622;7.746;2023-05-10T02:29:54;5.20;;;4.70;;
77304;SDS011;66364;52.622;7.746;2023-05-10T02:31:56;6.05;;;5.55;;
77304;SDS011;66364;52.622;7.746;2023-05-10T02:36:30;9.53;;;6.05;;
77304;SDS011;66364;52.622;7.746;2023-05-10T02:38:32;6.83;;;6.22;;
77304;SDS011;66364;52.622;7.746;2023-05-10T02:40:55;7.90;;;6.40;;
77304;SDS011;66364;52.622;7.746;2023-05-10T02:42:57;6.90;;;6.30;;
77304;SDS011;66364;52.622;7.746;2023-05-10T02:45:02;7.90;;;7.10;;
77304;SDS011;66364;52.622;7.746;2023-05-10T02:47:09;6.72;;;6.10;;
77304;SDS011;66364;52.622;7.746;2023-05-10T02:49:10;7.80;;;7.10;;
77304;SDS011;66364;52.622;7.746;2023-05-10T02:51:12;8.10;;;7.30;;
77304;SDS011;66364;52.622;7.746;2023-05-10T02:53:18;9.00;;;7.95;;
77304;SDS011;66364;52.622;7.746;2023-05-10T02:55:22;8.20;;;7.50;;
77304;SDS011;66364;52.622;7.746;2023-05-10T02:57:27;9.58;;;8.78;;
77304;SDS011;66364;52.622;7.746;2023-05-10T02:59:31;8.48;;;7.67;;
77304;SDS011;66364;52.622;7.746;2023-05-10T03:01:32;11.12;;;10.13;;
77304;SDS011;66364;52.622;7.746;2023-05-10T03:03:33;9.00;;;8.20;;
77304;SDS011;66364;52.622;7.746;2023-05-10T03:05:34;10.87;;;9.90;;
77304;SDS011;66364;52.622;7.746;2023-05-10T03:07:36;9.80;;;8.90;;
77304;SDS011;66364;52.622;7.746;2023-05-10T03:09:48;11.18;;;10.08;;
77304;SDS011;66364;52.622;7.746;2023-05-10T03:16:41;12.63;;;11.15;;
77304;SDS011;66364;52.622;7.746;2023-05-10T03:18:56;11.75;;;10.55;;
77304;SDS011;66364;52.622;7.746;2023-05-10T03:21:02;12.68;;;11.03;;
77304;SDS011;66364;52.622;7.746;2023-05-10T03:23:07;12.73;;;11.50;;
77304;SDS011;66364;52.622;7.746;2023-05-10T03:25:10;11.80;;;10.60;;
77304;SDS011;66364;52.622;7.746;2023-05-10T03:27:12;12.00;;;10.80;;
77304;SDS011;66364;52.622;7.746;2023-05-10T03:29:17;12.23;;;11.12;;
77304;SDS011;66364;52.622;7.746;2023-05-10T03:31:19;13.13;;;11.83;;
77304;SDS011;66364;52.622;7.746;2023-05-10T03:33:21;14.25;;;12.75;;
77304;SDS011;66364;52.622;7.746;2023-05-10T03:37:35;13.40;;;11.70;;
77304;SDS011;66364;52.622;7.746;2023-05-10T03:39:37;12.00;;;10.70;;
77304;SDS011;66364;52.622;7.746;2023-05-10T03:41:38;15.72;;;12.33;;
77304;SDS011;66364;52.622;7.746;2023-05-10T03:43:40;13.62;;;12.43;;
77304;SDS011;66364;52.622;7.746;2023-05-10T03:45:41;13.85;;;12.43;;
77304;SDS011;66364;52.622;7.746;2023-05-10T03:47:43;16.48;;;13.95;;
77304;SDS011;66364;52.622;7.746;2023-05-10T03:49:44;13.63;;;12.23;;
77304;SDS011;66364;52.622;7.746;2023-05-10T03:51:46;15.03;;;13.58;;
77304;SDS011;66364;52.622;7.746;2023-05-10T03:53:48;13.85;;;12.47;;
77304;SDS011;66364;52.622;7.746;2023-05-10T03:55:50;13.48;;;12.20;;
77304;SDS011;66364;52.622;7.746;2023-05-10T03:57:51;14.30;;;12.90;;
77304;SDS011;66364;52.622;7.746;2023-05-10T03:59:52;14.40;;;12.90;;
77304;SDS011;66364;52.622;7.746;2023-05-10T04:01:54;14.05;;;12.60;;
77304;SDS011;66364;52.622;7.746;2023-05-10T04:03:57;16.17;;;14.60;;
77304;SDS011;66364;52.622;7.746;2023-05-10T04:06:00;18.17;;;13.90;;
77304;SDS011;66364;52.622;7.746;2023-05-10T04:08:03;15.30;;;13.80;;
77304;SDS011;66364;52.622;7.746;2023-05-10T04:10:05;15.68;;;14.07;;
77304;SDS011;66364;52.622;7.746;2023-05-10T04:12:07;16.17;;;13.72;;
77304;SDS011;66364;52.622;7.746;2023-05-10T04:14:08;14.68;;;13.05;;
77304;SDS011;66364;52.622;7.746;2023-05-10T04:16:11;13.62;;;12.23;;
77304;SDS011;66364;52.622;7.746;2023-05-10T04:18:14;14.28;;;12.98;;
77304;SDS011;66364;52.622;7.746;2023-05-10T04:20:17;16.00;;;14.07;;
77304;SDS011;66364;52.622;7.746;2023-05-10T04:22:19;14.35;;;12.82;;
77304;SDS011;66364;52.622;7.746;2023-05-10T04:24:20;15.43;;;13.83;;
77304;SDS011;66364;52.622;7.746;2023-05-10T04:26:21;17.42;;;15.72;;
77304;SDS011;66364;52.622;7.746;2023-05-10T04:28:23;16.23;;;14.33;;
77304;SDS011;66364;52.622;7.746;2023-05-10T04:30:24;17.93;;;15.13;;
77304;SDS011;66364;52.622;7.746;2023-05-10T04:32:25;15.32;;;13.72;;
77304;SDS011;66364;52.622;7.746;2023-05-10T04:34:26;16.37;;;14.77;;
77304;SDS011;66364;52.622;7.746;2023-05-10T04:36:27;16.63;;;14.50;;
77304;SDS011;66364;52.622;7.746;2023-05-10T04:38:28;17.07;;;15.23;;
77304;SDS011;66364;52.622;7.746;2023-05-10T04:40:29;17.12;;;14.60;;
77304;SDS011;66364;52.622;7.746;2023-05-10T04:42:30;17.23;;;13.73;;
77304;SDS011;66364;52.622;7.746;2023-05-10T04:44:31;18.23;;;15.67;;
77304;SDS011;66364;52.622;7.746;2023-05-10T04:46:33;16.75;;;15.05;;
77304;SDS011;66364;52.622;7.746;2023-05-10T04:48:34;16.30;;;14.17;;
77304;SDS011;66364;52.622;7.746;2023-05-10T04:52:59;16.40;;;13.03;;
77304;SDS011;66364;52.622;7.746;2023-05-10T04:55:01;16.00;;;14.30;;
77304;SDS011;66364;52.622;7.746;2023-05-10T04:57:03;16.35;;;14.15;;
77304;SDS011;66364;52.622;7.746;2023-05-10T04:59:03;14.33;;;12.10;;
77304;SDS011;66364;52.622;7.746;2023-05-10T05:01:05;17.10;;;14.15;;
77304;SDS011;66364;52.622;7.746;2023-05-10T05:03:08;18.30;;;14.85;;
77304;SDS011;66364;52.622;7.746;2023-05-10T05:05:08;15.70;;;14.00;;
77304;SDS011;66364;52.622;7.746;2023-05-10T05:07:09;17.50;;;14.43;;
77304;SDS011;66364;52.622;7.746;2023-05-10T05:09:10;18.57;;;14.37;;
77304;SDS011;66364;52.622;7.746;2023-05-10T05:11:11;16.97;;;14.77;;
77304;SDS011;66364;52.622;7.746;2023-05-10T05:13:12;15.63;;;13.18;;
77304;SDS011;66364;52.622;7.746;2023-05-10T05:15:21;15.10;;;13.60;;
77304;SDS011;66364;52.622;7.746;2023-05-10T05:17:22;18.98;;;12.98;;
77304;SDS011;66364;52.622;7.746;2023-05-10T05:19:24;16.75;;;14.65;;
77304;SDS011;66364;52.622;7.746;2023-05-10T05:21:24;17.80;;;15.10;;
77304;SDS011;66364;52.622;7.746;2023-05-10T05:23:25;16.42;;;14.13;;
77304;SDS011;66364;52.622;7.746;2023-05-10T05:25:27;15.85;;;12.85;;
77304;SDS011;66364;52.622;7.746;2023-05-10T05:27:29;13.62;;;11.97;;
77304;SDS011;66364;52.622;7.746;2023-05-10T05:29:31;14.35;;;12.93;;
77304;SDS011;66364;52.622;7.746;2023-05-10T05:31:32;14.10;;;12.70;;
77304;SDS011;66364;52.622;7.746;2023-05-10T05:33:33;14.83;;;13.23;;
77304;SDS011;66364;52.622;7.746;2023-05-10T05:35:34;16.20;;;14.58;;
77304;SDS011;66364;52.622;7.746;2023-05-10T05:37:36;14.55;;;13.03;;
77304;SDS011;66364;52.622;7.746;2023-05-10T05:39:37;13.88;;;12.55;;
77304;SDS011;66364;52.622;7.746;2023-05-10T05:41:38;14.98;;;13.48;;
77304;SDS011;66364;52.622;7.746;2023-05-10T05:43:41;13.83;;;12.40;;
77304;SDS011;66364;52.622;7.746;2023-05-10T05:45:42;14.95;;;13.35;;
77304;SDS011;66364;52.622;7.746;2023-05-10T05:47:44;15.60;;;14.00;;
77304;SDS011;66364;52.622;7.746;2023-05-10T05:49:45;14.65;;;13.10;;
77304;SDS011;66364;52.622;7.746;2023-05-10T05:51:46;18.15;;;14.40;;
77304;SDS011;66364;52.622;7.746;2023-05-10T05:53:47;16.25;;;14.55;;
77304;SDS011;66364;52.622;7.746;2023-05-10T05:55:54;15.30;;;13.77;;
77304;SDS011;66364;52.622;7.746;2023-05-10T05:57:57;17.23;;;15.08;;
77304;SDS011;66364;52.622;7.746;2023-05-10T06:02:10;16.23;;;14.58;;
77304;SDS011;66364;52.622;7.746;2023-05-10T06:04:11;17.35;;;15.32;;
77304;SDS011;66364;52.622;7.746;2023-05-10T06:06:11;18.93;;;15.87;;
77304;SDS011;66364;52.622;7.746;2023-05-10T06:08:13;15.68;;;13.68;;
77304;SDS011;66364;52.622;7.746;2023-05-10T06:10:14;16.03;;;14.10;;
77304;SDS011;66364;52.622;7.746;2023-05-10T06:12:15;16.37;;;14.68;;
77304;SDS011;66364;52.622;7.746;2023-05-10T06:14:17;20.17;;;15.30;;
77304;SDS011;66364;52.622;7.746;2023-05-10T06:16:17;16.80;;;14.97;;
77304;SDS011;66364;52.622;7.746;2023-05-10T06:18:19;15.95;;;14.03;;
77304;SDS011;66364;52.622;7.746;2023-05-10T06:20:20;19.52;;;14.25;;
77304;SDS011;66364;52.622;7.746;2023-05-10T06:22:22;17.90;;;14.80;;
77304;SDS011;66364;52.622;7.746;2023-05-10T06:24:23;15.83;;;13.25;;
77304;SDS011;66364;52.622;7.746;2023-05-10T06:26:24;15.23;;;13.23;;
77304;SDS011;66364;52.622;7.746;2023-05-10T06:28:25;19.27;;;14.47;;
77304;SDS011;66364;52.622;7.746;2023-05-10T06:30:26;17.55;;;14.03;;
77304;SDS011;66364;52.622;7.746;2023-05-10T06:32:27;15.38;;;13.10;;
77304;SDS011;66364;52.622;7.746;2023-05-10T06:34:34;14.68;;;12.23;;
77304;SDS011;66364;52.622;7.746;2023-05-10T06:36:35;15.23;;;13.70;;
77304;SDS011;66364;52.622;7.746;2023-05-10T06:38:37;14.60;;;13.00;;
77304;SDS011;66364;52.622;7.746;2023-05-10T06:40:40;21.20;;;13.73;;
77304;SDS011;66364;52.622;7.746;2023-05-10T06:42:44;13.03;;;10.90;;
77304;SDS011;66364;52.622;7.746;2023-05-10T06:44:44;18.17;;;12.27;;
77304;SDS011;66364;52.622;7.746;2023-05-10T06:46:46;14.60;;;13.10;;
77304;SDS011;66364;52.622;7.746;2023-05-10T06:48:47;14.73;;;12.13;;
77304;SDS011;66364;52.622;7.746;2023-05-10T06:50:56;14.93;;;11.68;;
77304;SDS011;66364;52.622;7.746;2023-05-10T06:52:57;20.68;;;13.10;;
77304;SDS011;66364;52.622;7.746;2023-05-10T06:54:58;13.90;;;11.67;;
77304;SDS011;66364;52.622;7.746;2023-05-10T06:57:00;14.53;;;13.03;;
77304;SDS011;66364;52.622;7.746;2023-05-10T06:59:01;15.80;;;13.15;;
77304;SDS011;66364;52.622;7.746;2023-05-10T07:03:23;14.25;;;12.85;;
77304;SDS011;66364;52.622;7.746;2023-05-10T07:05:24;15.60;;;13.30;;
77304;SDS011;66364;52.622;7.746;2023-05-10T07:07:25;15.10;;;13.20;;
77304;SDS011;66364;52.622;7.746;2023-05-10T07:09:26;16.42;;;14.35;;
77304;SDS011;66364;52.622;7.746;2023-05-10T07:11:27;16.17;;;13.37;;
77304;SDS011;66364;52.622;7.746;2023-05-10T07:13:28;17.00;;;13.63;;
77304;SDS011;66364;52.622;7.746;2023-05-10T07:15:29;15.78;;;14.07;;
77304;SDS011;66364;52.622;7.746;2023-05-10T07:17:30;17.60;;;15.70;;
77304;SDS011;66364;52.622;7.746;2023-05-10T07:19:31;17.50;;;15.47;;
77304;SDS011;66364;52.622;7.746;2023-05-10T07:21:32;17.53;;;15.53;;
77304;SDS011;66364;52.622;7.746;2023-05-10T07:23:33;17.95;;;16.20;;
77304;SDS011;66364;52.622;7.746;2023-05-10T07:25:34;20.47;;;17.53;;
77304;SDS011;66364;52.622;7.746;2023-05-10T07:27:35;21.00;;;16.93;;
77304;SDS011;66364;52.622;7.746;2023-05-10T07:29:36;22.20;;;16.48;;
77304;SDS011;66364;52.622;7.746;2023-05-10T07:31:37;19.20;;;16.97;;
77304;SDS011;66364;52.622;7.746;2023-05-10T07:33:38;19.23;;;17.23;;
77304;SDS011;66364;52.622;7.746;2023-05-10T07:35:39;18.98;;;15.75;;
77304;SDS011;66364;52.622;7.746;2023-05-10T07:37:40;19.63;;;16.97;;
77304;SDS011;66364;52.622;7.746;2023-05-10T07:39:41;18.90;;;16.43;;
77304;SDS011;66364;52.622;7.746;2023-05-10T07:41:41;17.70;;;14.57;;
77304;SDS011;66364;52.622;7.746;2023-05-10T07:43:43;16.75;;;14.98;;
77304;SDS011;66364;52.622;7.746;2023-05-10T07:45:43;21.07;;;15.70;;
77304;SDS011;66364;52.622;7.746;2023-05-10T07:47:57;15.03;;;13.20;;
77304;SDS011;66364;52.622;7.746;2023-05-10T07:49:58;17.37;;;14.78;;
77304;SDS011;66364;52.622;7.746;2023-05-10T07:51:59;17.65;;;14.85;;
77304;SDS011;66364;52.622;7.746;2023-05-10T07:54:00;14.70;;;13.15;;
77304;SDS011;66364;52.622;7.746;2023-05-10T07:56:19;15.43;;;13.83;;
77304;SDS011;66364;52.622;7.746;2023-05-10T07:58:22;17.82;;;14.50;;
77304;SDS011;66364;52.622;7.746;2023-05-10T08:00:23;18.13;;;13.70;;
77304;SDS011;66364;52.622;7.746;2023-05-10T08:02:24;20.00;;;16.43;;
77304;SDS011;66364;52.622;7.746;2023-05-10T08:04:25;16.17;;;12.80;;
77304;SDS011;66364;52.622;7.746;2023-05-10T08:06:26;17.43;;;14.00;;
77304;SDS011;66364;52.622;7.746;2023-05-10T08:08:28;16.70;;;14.30;;
77304;SDS011;66364;52.622;7.746;2023-05-10T08:10:29;15.50;;;12.40;;
77304;SDS011;66364;52.622;7.746;2023-05-10T08:12:30;19.05;;;13.68;;
77304;SDS011;66364;52.622;7.746;2023-05-10T08:14:31;16.85;;;13.10;;
77304;SDS011;66364;52.622;7.746;2023-05-10T08:16:38;15.00;;;13.43;;
77304;SDS011;66364;52.622;7.746;2023-05-10T08:18:39;16.42;;;12.85;;
77304;SDS011;66364;52.622;7.746;2023-05-10T08:20:40;18.98;;;14.10;;
77304;SDS011;66364;52.622;7.746;2023-05-10T08:22:41;16.37;;;12.73;;
77304;SDS011;66364;52.622;7.746;2023-05-10T08:24:43;15.55;;;14.03;;
77304;SDS011;66364;52.622;7.746;2023-05-10T08:26:43;21.20;;;15.73;;
77304;SDS011;66364;52.622;7.746;2023-05-10T08:28:44;19.07;;;17.03;;
77304;SDS011;66364;52.622;7.746;2023-05-10T08:30:45;18.93;;;13.93;;
77304;SDS011;66364;52.622;7.746;2023-05-10T08:32:47;19.55;;;14.73;;
77304;SDS011;66364;52.622;7.746;2023-05-10T08:34:48;19.70;;;15.18;;
77304;SDS011;66364;52.622;7.746;2023-05-10T08:36:50;19.92;;;15.10;;
77304;SDS011;66364;52.622;7.746;2023-05-10T08:38:51;16.95;;;14.75;;
77304;SDS011;66364;52.622;7.746;2023-05-10T08:40:52;18.60;;;15.15;;
77304;SDS011;66364;52.622;7.746;2023-05-10T08:42:56;18.60;;;15.72;;
77304;SDS011;66364;52.622;7.746;2023-05-10T08:45:00;20.45;;;17.52;;
77304;SDS011;66364;52.622;7.746;2023-05-10T08:47:05;17.40;;;15.60;;
77304;SDS011;66364;52.622;7.746;2023-05-10T08:49:07;19.20;;;15.45;;
77304;SDS011;66364;52.622;7.746;2023-05-10T08:51:11;17.55;;;14.50;;
77304;SDS011;66364;52.622;7.746;2023-05-10T08:53:20;18.37;;;14.70;;
77304;SDS011;66364;52.622;7.746;2023-05-10T08:55:23;17.12;;;14.03;;
77304;SDS011;66364;52.622;7.746;2023-05-10T08:57:24;22.20;;;15.65;;
77304;SDS011;66364;52.622;7.746;2023-05-10T08:59:25;18.07;;;14.70;;
77304;SDS011;66364;52.622;7.746;2023-05-10T09:01:26;20.30;;;13.95;;
77304;SDS011;66364;52.622;7.746;2023-05-10T09:03:28;16.10;;;12.73;;
77304;SDS011;66364;52.622;7.746;2023-05-10T09:05:31;15.90;;;12.53;;
77304;SDS011;66364;52.622;7.746;2023-05-10T09:07:32;14.43;;;12.93;;
77304;SDS011;66364;52.622;7.746;2023-05-10T09:09:33;14.33;;;12.40;;
77304;SDS011;66364;52.622;7.746;2023-05-10T09:11:35;14.95;;;12.70;;
77304;SDS011;66364;52.622;7.746;2023-05-10T09:13:37;13.85;;;12.45;;
77304;SDS011;66364;52.622;7.746;2023-05-10T09:15:38;19.05;;;10.45;;
77304;SDS011;66364;52.622;7.746;2023-05-10T09:17:40;10.00;;;9.10;;
77304;SDS011;66364;52.622;7.746;2023-05-10T09:19:42;12.28;;;11.08;;
77304;SDS011;66364;52.622;7.746;2023-05-10T09:21:45;13.70;;;11.25;;
77304;SDS011;66364;52.622;7.746;2023-05-10T09:23:47;19.17;;;11.77;;
77304;SDS011;66364;52.622;7.746;2023-05-10T09:26:01;12.20;;;10.98;;
77304;SDS011;66364;52.622;7.746;2023-05-10T09:28:08;10.75;;;9.30;;
77304;SDS011;66364;52.622;7.746;2023-05-10T09:30:09;11.83;;;10.30;;
77304;SDS011;66364;52.622;7.746;2023-05-10T09:32:11;12.45;;;9.93;;
77304;SDS011;66364;52.622;7.746;2023-05-10T09:34:16;12.30;;;9.45;;
77304;SDS011;66364;52.622;7.746;2023-05-10T09:36:18;11.10;;;9.78;;
77304;SDS011;66364;52.622;7.746;2023-05-10T09:38:19;9.83;;;8.20;;
77304;SDS011;66364;52.622;7.746;2023-05-10T09:40:21;10.32;;;7.10;;
77304;SDS011;66364;52.622;7.746;2023-05-10T09:42:25;8.45;;;7.00;;
77304;SDS011;66364;52.622;7.746;2023-05-10T09:44:26;7.80;;;7.03;;
77304;SDS011;66364;52.622;7.746;2023-05-10T09:46:27;11.15;;;7.17;;
77304;SDS011;66364;52.622;7.746;2023-05-10T09:48:31;10.33;;;6.40;;
77304;SDS011;66364;52.622;7.746;2023-05-10T09:50:46;6.20;;;5.60;;
77304;SDS011;66364;52.622;7.746;2023-05-10T09:54:57;7.95;;;5.50;;
77304;SDS011;66364;52.622;7.746;2023-05-10T09:56:58;7.53;;;4.95;;
77304;SDS011;66364;52.622;7.746;2023-05-10T09:59:03;7.78;;;5.45;;
77304;SDS011;66364;52.622;7.746;2023-05-10T10:01:05;7.05;;;5.58;;
77304;SDS011;66364;52.622;7.746;2023-05-10T10:03:14;5.25;;;4.75;;
77304;SDS011;66364;52.622;7.746;2023-05-10T10:05:38;5.53;;;4.80;;
77304;SDS011;66364;52.622;7.746;2023-05-10T10:07:41;5.80;;;5.25;;
77304;SDS011;66364;52.622;7.746;2023-05-10T10:09:54;4.90;;;4.40;;
77304;SDS011;66364;52.622;7.746;2023-05-10T10:11:56;6.83;;;5.03;;
77304;SDS011;66364;52.622;7.746;2023-05-10T10:13:58;4.62;;;4.12;;
77304;SDS011;66364;52.622;7.746;2023-05-10T10:16:00;4.75;;;4.35;;
77304;SDS011;66364;52.622;7.746;2023-05-10T10:18:02;6.33;;;3.47;;
77304;SDS011;66364;52.622;7.746;2023-05-10T10:20:04;5.30;;;3.75;;
77304;SDS011;66364;52.622;7.746;2023-05-10T10:22:05;4.50;;;3.65;;
77304;SDS011;66364;52.622;7.746;2023-05-10T10:24:06;3.87;;;3.20;;
77304;SDS011;66364;52.622;7.746;2023-05-10T10:26:11;7.17;;;3.75;;
77304;SDS011;66364;52.622;7.746;2023-05-10T10:28:18;4.37;;;3.50;;
77304;SDS011;66364;52.622;7.746;2023-05-10T10:30:44;3.85;;;3.25;;
77304;SDS011;66364;52.622;7.746;2023-05-10T10:32:57;5.55;;;4.00;;
77304;SDS011;66364;52.622;7.746;2023-05-10T10:35:10;3.87;;;3.10;;
77304;SDS011;66364;52.622;7.746;2023-05-10T10:37:12;4.75;;;4.10;;
77304;SDS011;66364;52.622;7.746;2023-05-10T10:39:13;4.03;;;3.72;;
77304;SDS011;66364;52.622;7.746;2023-05-10T10:43:37;4.65;;;4.25;;
77304;SDS011;66364;52.622;7.746;2023-05-10T10:45:39;3.98;;;3.37;;
77304;SDS011;66364;52.622;7.746;2023-05-10T10:47:44;6.12;;;4.30;;
77304;SDS011;66364;52.622;7.746;2023-05-10T10:54:29;11.65;;;5.35;;
77304;SDS011;66364;52.622;7.746;2023-05-10T10:56:30;5.95;;;5.10;;
77304;SDS011;66364;52.622;7.746;2023-05-10T11:00:42;6.50;;;5.22;;
77304;SDS011;66364;52.622;7.746;2023-05-10T11:02:44;6.72;;;5.22;;
77304;SDS011;66364;52.622;7.746;2023-05-10T11:04:47;6.70;;;5.22;;
77304;SDS011;66364;52.622;7.746;2023-05-10T11:06:48;6.60;;;4.75;;
77304;SDS011;66364;52.622;7.746;2023-05-10T11:08:49;6.35;;;5.10;;
77304;SDS011;66364;52.622;7.746;2023-05-10T11:13:03;6.25;;;4.20;;
77304;SDS011;66364;52.622;7.746;2023-05-10T11:15:11;6.92;;;5.90;;
77304;SDS011;66364;52.622;7.746;2023-05-10T11:17:22;5.37;;;4.75;;
77304;SDS011;66364;52.622;7.746;2023-05-10T11:19:24;5.37;;;4.67;;
77304;SDS011;66364;52.622;7.746;2023-05-10T11:21:30;5.42;;;4.37;;
77304;SDS011;66364;52.622;7.746;2023-05-10T11:23:32;4.90;;;4.40;;
77304;SDS011;66364;52.622;7.746;2023-05-10T11:25:55;6.95;;;4.87;;
77304;SDS011;66364;52.622;7.746;2023-05-10T11:27:56;6.25;;;5.40;;
77304;SDS011;66364;52.622;7.746;2023-05-10T11:29:58;4.58;;;4.17;;
77304;SDS011;66364;52.622;7.746;2023-05-10T11:32:00;5.58;;;5.08;;
77304;SDS011;66364;52.622;7.746;2023-05-10T11:34:01;5.17;;;4.67;;
77304;SDS011;66364;52.622;7.746;2023-05-10T11:36:02;5.33;;;4.83;;
77304;SDS011;66364;52.622;7.746;2023-05-10T11:38:05;6.78;;;5.30;;
77304;SDS011;66364;52.622;7.746;2023-05-10T11:40:07;5.50;;;4.95;;
77304;SDS011;66364;52.622;7.746;2023-05-10T11:42:09;5.15;;;4.75;;
77304;SDS011;66364;52.622;7.746;2023-05-10T11:44:09;5.67;;;5.00;;
77304;SDS011;66364;52.622;7.746;2023-05-10T11:46:12;5.80;;;4.80;;
77304;SDS011;66364;52.622;7.746;2023-05-10T11:48:22;4.78;;;4.33;;
77304;SDS011;66364;52.622;7.746;2023-05-10T11:50:24;4.80;;;4.40;;
77304;SDS011;66364;52.622;7.746;2023-05-10T11:52:25;7.10;;;5.40;;
77304;SDS011;66364;52.622;7.746;2023-05-10T11:54:26;6.10;;;5.50;;
77304;SDS011;66364;52.622;7.746;2023-05-10T11:56:29;6.07;;;5.20;;
77304;SDS011;66364;52.622;7.746;2023-05-10T11:58:33;5.50;;;4.50;;
77304;SDS011;66364;52.622;7.746;2023-05-10T12:00:35;5.15;;;4.65;;
77304;SDS011;66364;52.622;7.746;2023-05-10T12:02:37;5.92;;;5.33;;
77304;SDS011;66364;52.622;7.746;2023-05-10T12:04:38;7.05;;;4.95;;
77304;SDS011;66364;52.622;7.746;2023-05-10T12:06:40;10.72;;;5.25;;
77304;SDS011;66364;52.622;7.746;2023-05-10T12:10:49;4.85;;;4.37;;
77304;SDS011;66364;52.622;7.746;2023-05-10T12:12:51;4.92;;;4.35;;
77304;SDS011;66364;52.622;7.746;2023-05-10T12:14:53;4.62;;;4.22;;
77304;SDS011;66364;52.622;7.746;2023-05-10T12:16:56;5.97;;;5.40;;
77304;SDS011;66364;52.622;7.746;2023-05-10T12:18:59;5.53;;;5.03;;
77304;SDS011;66364;52.622;7.746;2023-05-10T12:21:03;7.12;;;6.22;;
77304;SDS011;66364;52.622;7.746;2023-05-10T12:23:05;5.97;;;5.45;;
77304;SDS011;66364;52.622;7.746;2023-05-10T12:25:09;6.50;;;5.95;;
77304;SDS011;66364;52.622;7.746;2023-05-10T12:27:10;6.40;;;5.80;;
77304;SDS011;66364;52.622;7.746;2023-05-10T12:29:17;6.40;;;4.60;;
77304;SDS011;66364;52.622;7.746;2023-05-10T12:31:19;6.30;;;5.80;;
77304;SDS011;66364;52.622;7.746;2023-05-10T12:33:21;6.53;;;5.58;;
77304;SDS011;66364;52.622;7.746;2023-05-10T12:35:24;8.23;;;6.50;;
77304;SDS011;66364;52.622;7.746;2023-05-10T12:37:27;7.30;;;5.33;;
77304;SDS011;66364;52.622;7.746;2023-05-10T12:39:40;5.75;;;5.17;;
77304;SDS011;66364;52.622;7.746;2023-05-10T12:41:43;5.28;;;4.78;;
77304;SDS011;66364;52.622;7.746;2023-05-10T12:43:44;17.77;;;5.03;;
77304;SDS011;66364;52.622;7.746;2023-05-10T12:45:46;5.67;;;4.70;;
77304;SDS011;66364;52.622;7.746;2023-05-10T12:47:48;5.20;;;4.28;;
77304;SDS011;66364;52.622;7.746;2023-05-10T12:49:50;5.15;;;4.50;;
77304;SDS011;66364;52.622;7.746;2023-05-10T12:51:51;5.33;;;4.80;;
77304;SDS011;66364;52.622;7.746;2023-05-10T12:53:53;5.78;;;4.40;;